Terminal Aerodrome Forecast
Issued by NWS

Home | Current Version | Previous Version | Text Only | Print | Product List | Glossary On
Versions: 1 2 3 4 5 6 7 8 9 10 11 12 13 14 15 16 17 18
000
FTUS43 KABR 061120
TAFPIR
TAF
KPIR 061120Z 0612/0712 13011KT P6SM -SHRA OVC015
      TEMPO 0612/0616 5SM -SHRA BR OVC025
     FM070200 12008KT 5SM BR OVC008=

USA.gov is the U.S. government's official web portal to all federal, state and local government web resources and services.